sensor_id;sensor_type;location;lat;lon;timestamp;P1;durP1;ratioP1;P2;durP2;ratioP2
45932;SDS011;51011;46.790;17.184;2022-07-29T00:00:17;6.50;;;5.90;;
45932;SDS011;51011;46.790;17.184;2022-07-29T00:02:44;6.95;;;6.22;;
45932;SDS011;51011;46.790;17.184;2022-07-29T00:05:11;7.35;;;6.00;;
45932;SDS011;51011;46.790;17.184;2022-07-29T00:07:38;6.57;;;5.78;;
45932;SDS011;51011;46.790;17.184;2022-07-29T00:10:05;6.43;;;5.82;;
45932;SDS011;51011;46.790;17.184;2022-07-29T00:12:31;10.35;;;6.75;;
45932;SDS011;51011;46.790;17.184;2022-07-29T00:14:57;7.47;;;6.40;;
45932;SDS011;51011;46.790;17.184;2022-07-29T00:17:23;6.45;;;5.85;;
45932;SDS011;51011;46.790;17.184;2022-07-29T00:19:49;7.63;;;5.97;;
45932;SDS011;51011;46.790;17.184;2022-07-29T00:22:14;6.90;;;5.80;;
45932;SDS011;51011;46.790;17.184;2022-07-29T00:24:40;7.22;;;5.95;;
45932;SDS011;51011;46.790;17.184;2022-07-29T00:27:05;7.15;;;6.40;;
45932;SDS011;51011;46.790;17.184;2022-07-29T00:29:31;7.15;;;6.40;;
45932;SDS011;51011;46.790;17.184;2022-07-29T00:31:56;7.10;;;6.40;;
45932;SDS011;51011;46.790;17.184;2022-07-29T00:34:22;9.02;;;6.65;;
45932;SDS011;51011;46.790;17.184;2022-07-29T00:37:06;7.45;;;6.50;;
45932;SDS011;51011;46.790;17.184;2022-07-29T00:39:32;8.27;;;6.20;;
45932;SDS011;51011;46.790;17.184;2022-07-29T00:41:57;9.18;;;6.30;;
45932;SDS011;51011;46.790;17.184;2022-07-29T00:44:23;6.55;;;5.95;;
45932;SDS011;51011;46.790;17.184;2022-07-29T00:46:48;7.55;;;6.22;;
45932;SDS011;51011;46.790;17.184;2022-07-29T00:49:14;7.22;;;6.00;;
45932;SDS011;51011;46.790;17.184;2022-07-29T00:51:39;7.35;;;5.90;;
45932;SDS011;51011;46.790;17.184;2022-07-29T00:54:05;6.85;;;6.25;;
45932;SDS011;51011;46.790;17.184;2022-07-29T00:56:31;7.57;;;6.70;;
45932;SDS011;51011;46.790;17.184;2022-07-29T00:58:57;7.88;;;6.60;;
45932;SDS011;51011;46.790;17.184;2022-07-29T01:01:23;7.05;;;6.35;;
45932;SDS011;51011;46.790;17.184;2022-07-29T01:03:49;8.70;;;6.63;;
45932;SDS011;51011;46.790;17.184;2022-07-29T01:06:15;7.07;;;6.47;;
45932;SDS011;51011;46.790;17.184;2022-07-29T01:08:41;7.10;;;6.40;;
45932;SDS011;51011;46.790;17.184;2022-07-29T01:11:07;6.80;;;6.20;;
45932;SDS011;51011;46.790;17.184;2022-07-29T01:13:33;6.47;;;5.88;;
45932;SDS011;51011;46.790;17.184;2022-07-29T01:16:01;6.45;;;5.85;;
45932;SDS011;51011;46.790;17.184;2022-07-29T01:18:38;6.95;;;6.20;;
45932;SDS011;51011;46.790;17.184;2022-07-29T01:29:34;7.28;;;6.20;;
45932;SDS011;51011;46.790;17.184;2022-07-29T01:32:03;7.55;;;6.85;;
45932;SDS011;51011;46.790;17.184;2022-07-29T01:37:15;10.02;;;6.80;;
45932;SDS011;51011;46.790;17.184;2022-07-29T01:39:44;7.53;;;6.28;;
45932;SDS011;51011;46.790;17.184;2022-07-29T01:42:15;7.45;;;6.50;;
45932;SDS011;51011;46.790;17.184;2022-07-29T01:47:33;6.70;;;6.10;;
45932;SDS011;51011;46.790;17.184;2022-07-29T01:50:03;7.43;;;6.40;;
45932;SDS011;51011;46.790;17.184;2022-07-29T01:52:36;10.93;;;6.40;;
45932;SDS011;51011;46.790;17.184;2022-07-29T01:55:04;7.28;;;5.97;;
45932;SDS011;51011;46.790;17.184;2022-07-29T01:57:34;7.65;;;6.50;;
45932;SDS011;51011;46.790;17.184;2022-07-29T02:00:01;7.60;;;6.50;;
45932;SDS011;51011;46.790;17.184;2022-07-29T02:02:37;6.60;;;6.10;;
45932;SDS011;51011;46.790;17.184;2022-07-29T02:05:05;7.47;;;6.10;;
45932;SDS011;51011;46.790;17.184;2022-07-29T02:07:31;7.30;;;6.10;;
45932;SDS011;51011;46.790;17.184;2022-07-29T02:09:58;7.53;;;6.75;;
45932;SDS011;51011;46.790;17.184;2022-07-29T02:12:24;7.22;;;6.30;;
45932;SDS011;51011;46.790;17.184;2022-07-29T02:14:51;7.30;;;6.60;;
45932;SDS011;51011;46.790;17.184;2022-07-29T02:17:21;8.40;;;6.97;;
45932;SDS011;51011;46.790;17.184;2022-07-29T02:19:50;8.25;;;6.20;;
45932;SDS011;51011;46.790;17.184;2022-07-29T02:22:17;7.25;;;6.43;;
45932;SDS011;51011;46.790;17.184;2022-07-29T02:24:43;7.47;;;6.43;;
45932;SDS011;51011;46.790;17.184;2022-07-29T02:27:09;7.00;;;6.22;;
45932;SDS011;51011;46.790;17.184;2022-07-29T02:29:35;7.85;;;6.22;;
45932;SDS011;51011;46.790;17.184;2022-07-29T02:32:01;7.03;;;6.32;;
45932;SDS011;51011;46.790;17.184;2022-07-29T02:34:27;7.63;;;6.55;;
45932;SDS011;51011;46.790;17.184;2022-07-29T02:36:53;6.85;;;6.15;;
45932;SDS011;51011;46.790;17.184;2022-07-29T02:39:20;8.52;;;6.78;;
45932;SDS011;51011;46.790;17.184;2022-07-29T02:41:47;8.05;;;6.82;;
45932;SDS011;51011;46.790;17.184;2022-07-29T02:44:19;6.68;;;5.85;;
45932;SDS011;51011;46.790;17.184;2022-07-29T02:50:14;7.07;;;6.38;;
45932;SDS011;51011;46.790;17.184;2022-07-29T02:52:35;7.13;;;6.40;;
45932;SDS011;51011;46.790;17.184;2022-07-29T02:57:44;9.07;;;6.65;;
45932;SDS011;51011;46.790;17.184;2022-07-29T03:00:12;8.68;;;7.10;;
45932;SDS011;51011;46.790;17.184;2022-07-29T03:02:43;8.43;;;6.80;;
45932;SDS011;51011;46.790;17.184;2022-07-29T03:05:15;8.25;;;6.85;;
45932;SDS011;51011;46.790;17.184;2022-07-29T03:07:43;7.53;;;6.38;;
45932;SDS011;51011;46.790;17.184;2022-07-29T03:10:11;7.13;;;6.38;;
45932;SDS011;51011;46.790;17.184;2022-07-29T03:12:37;8.38;;;7.15;;
45932;SDS011;51011;46.790;17.184;2022-07-29T03:15:03;7.38;;;6.68;;
45932;SDS011;51011;46.790;17.184;2022-07-29T03:17:29;13.05;;;6.70;;
45932;SDS011;51011;46.790;17.184;2022-07-29T03:19:56;7.32;;;6.20;;
45932;SDS011;51011;46.790;17.184;2022-07-29T03:22:23;7.95;;;6.45;;
45932;SDS011;51011;46.790;17.184;2022-07-29T03:24:49;7.82;;;6.47;;
45932;SDS011;51011;46.790;17.184;2022-07-29T03:27:14;7.43;;;6.63;;
45932;SDS011;51011;46.790;17.184;2022-07-29T03:29:40;7.30;;;6.20;;
45932;SDS011;51011;46.790;17.184;2022-07-29T03:32:05;7.55;;;6.85;;
45932;SDS011;51011;46.790;17.184;2022-07-29T03:34:31;12.68;;;7.30;;
45932;SDS011;51011;46.790;17.184;2022-07-29T03:36:56;12.40;;;7.30;;
45932;SDS011;51011;46.790;17.184;2022-07-29T03:39:23;10.60;;;6.50;;
45932;SDS011;51011;46.790;17.184;2022-07-29T03:41:51;8.85;;;6.72;;
45932;SDS011;51011;46.790;17.184;2022-07-29T03:44:18;7.10;;;6.40;;
45932;SDS011;51011;46.790;17.184;2022-07-29T03:46:46;12.30;;;7.10;;
45932;SDS011;51011;46.790;17.184;2022-07-29T03:49:14;8.93;;;7.00;;
45932;SDS011;51011;46.790;17.184;2022-07-29T03:51:40;13.25;;;7.00;;
45932;SDS011;51011;46.790;17.184;2022-07-29T03:54:06;11.27;;;7.45;;
45932;SDS011;51011;46.790;17.184;2022-07-29T03:56:32;9.85;;;7.07;;
45932;SDS011;51011;46.790;17.184;2022-07-29T03:58:58;7.82;;;6.60;;
45932;SDS011;51011;46.790;17.184;2022-07-29T04:01:24;8.63;;;6.43;;
45932;SDS011;51011;46.790;17.184;2022-07-29T04:03:49;10.00;;;7.00;;
45932;SDS011;51011;46.790;17.184;2022-07-29T04:06:16;11.13;;;7.38;;
45932;SDS011;51011;46.790;17.184;2022-07-29T04:08:41;8.93;;;6.88;;
45932;SDS011;51011;46.790;17.184;2022-07-29T04:11:07;9.88;;;7.00;;
45932;SDS011;51011;46.790;17.184;2022-07-29T04:13:32;8.00;;;7.15;;
45932;SDS011;51011;46.790;17.184;2022-07-29T04:15:58;7.40;;;6.70;;
45932;SDS011;51011;46.790;17.184;2022-07-29T04:18:24;8.32;;;7.47;;
45932;SDS011;51011;46.790;17.184;2022-07-29T04:20:50;8.50;;;7.15;;
45932;SDS011;51011;46.790;17.184;2022-07-29T04:23:15;8.73;;;7.57;;
45932;SDS011;51011;46.790;17.184;2022-07-29T04:25:41;8.60;;;7.60;;
45932;SDS011;51011;46.790;17.184;2022-07-29T04:28:08;7.93;;;7.05;;
45932;SDS011;51011;46.790;17.184;2022-07-29T04:30:34;7.80;;;7.00;;
45932;SDS011;51011;46.790;17.184;2022-07-29T04:33:00;8.27;;;7.03;;
45932;SDS011;51011;46.790;17.184;2022-07-29T04:35:27;8.20;;;7.40;;
45932;SDS011;51011;46.790;17.184;2022-07-29T04:37:53;7.78;;;7.07;;
45932;SDS011;51011;46.790;17.184;2022-07-29T04:40:19;9.85;;;6.80;;
45932;SDS011;51011;46.790;17.184;2022-07-29T04:42:45;8.70;;;7.10;;
45932;SDS011;51011;46.790;17.184;2022-07-29T04:45:11;7.60;;;6.90;;
45932;SDS011;51011;46.790;17.184;2022-07-29T04:47:36;8.40;;;7.60;;
45932;SDS011;51011;46.790;17.184;2022-07-29T04:50:02;8.05;;;7.25;;
45932;SDS011;51011;46.790;17.184;2022-07-29T04:52:28;8.15;;;7.32;;
45932;SDS011;51011;46.790;17.184;2022-07-29T04:54:54;13.93;;;7.80;;
45932;SDS011;51011;46.790;17.184;2022-07-29T04:57:19;10.57;;;6.88;;
45932;SDS011;51011;46.790;17.184;2022-07-29T04:59:45;8.85;;;7.32;;
45932;SDS011;51011;46.790;17.184;2022-07-29T05:02:10;8.73;;;7.82;;
45932;SDS011;51011;46.790;17.184;2022-07-29T05:04:36;7.70;;;7.00;;
45932;SDS011;51011;46.790;17.184;2022-07-29T05:07:02;7.70;;;7.00;;
45932;SDS011;51011;46.790;17.184;2022-07-29T05:09:27;7.60;;;6.90;;
45932;SDS011;51011;46.790;17.184;2022-07-29T05:11:53;7.40;;;6.70;;
45932;SDS011;51011;46.790;17.184;2022-07-29T05:14:18;7.70;;;6.90;;
45932;SDS011;51011;46.790;17.184;2022-07-29T05:16:44;7.85;;;6.43;;
45932;SDS011;51011;46.790;17.184;2022-07-29T05:19:09;9.13;;;7.78;;
45932;SDS011;51011;46.790;17.184;2022-07-29T05:21:35;8.38;;;6.97;;
45932;SDS011;51011;46.790;17.184;2022-07-29T05:24:00;8.90;;;6.72;;
45932;SDS011;51011;46.790;17.184;2022-07-29T05:26:26;10.10;;;7.20;;
45932;SDS011;51011;46.790;17.184;2022-07-29T05:28:52;13.65;;;7.28;;
45932;SDS011;51011;46.790;17.184;2022-07-29T05:31:18;17.38;;;7.00;;
45932;SDS011;51011;46.790;17.184;2022-07-29T05:33:44;13.48;;;6.82;;
45932;SDS011;51011;46.790;17.184;2022-07-29T05:36:10;10.85;;;6.60;;
45932;SDS011;51011;46.790;17.184;2022-07-29T05:38:36;11.40;;;6.20;;
45932;SDS011;51011;46.790;17.184;2022-07-29T05:41:02;10.63;;;7.05;;
45932;SDS011;51011;46.790;17.184;2022-07-29T05:43:28;14.77;;;6.70;;
45932;SDS011;51011;46.790;17.184;2022-07-29T05:45:53;11.02;;;6.28;;
45932;SDS011;51011;46.790;17.184;2022-07-29T05:48:19;10.63;;;6.47;;
45932;SDS011;51011;46.790;17.184;2022-07-29T05:50:45;10.27;;;6.53;;
45932;SDS011;51011;46.790;17.184;2022-07-29T05:53:13;10.80;;;6.30;;
45932;SDS011;51011;46.790;17.184;2022-07-29T05:55:38;11.23;;;6.35;;
45932;SDS011;51011;46.790;17.184;2022-07-29T05:58:04;9.57;;;6.80;;
45932;SDS011;51011;46.790;17.184;2022-07-29T06:00:30;10.35;;;6.78;;
45932;SDS011;51011;46.790;17.184;2022-07-29T06:02:55;10.15;;;6.78;;
45932;SDS011;51011;46.790;17.184;2022-07-29T06:05:22;8.27;;;6.55;;
45932;SDS011;51011;46.790;17.184;2022-07-29T06:07:47;9.00;;;6.90;;
45932;SDS011;51011;46.790;17.184;2022-07-29T06:10:13;8.93;;;6.80;;
45932;SDS011;51011;46.790;17.184;2022-07-29T06:12:39;6.90;;;6.22;;
45932;SDS011;51011;46.790;17.184;2022-07-29T06:15:05;11.93;;;6.93;;
45932;SDS011;51011;46.790;17.184;2022-07-29T06:17:30;10.55;;;6.55;;
45932;SDS011;51011;46.790;17.184;2022-07-29T06:19:56;9.13;;;6.15;;
45932;SDS011;51011;46.790;17.184;2022-07-29T06:22:22;8.10;;;6.05;;
45932;SDS011;51011;46.790;17.184;2022-07-29T06:24:47;11.60;;;6.57;;
45932;SDS011;51011;46.790;17.184;2022-07-29T06:27:13;10.30;;;7.28;;
45932;SDS011;51011;46.790;17.184;2022-07-29T06:29:38;12.00;;;6.53;;
45932;SDS011;51011;46.790;17.184;2022-07-29T06:32:04;11.77;;;6.78;;
45932;SDS011;51011;46.790;17.184;2022-07-29T06:34:30;7.75;;;6.30;;
45932;SDS011;51011;46.790;17.184;2022-07-29T06:36:55;7.30;;;6.40;;
45932;SDS011;51011;46.790;17.184;2022-07-29T06:39:21;9.52;;;6.45;;
45932;SDS011;51011;46.790;17.184;2022-07-29T06:41:47;9.90;;;6.10;;
45932;SDS011;51011;46.790;17.184;2022-07-29T06:44:17;7.70;;;5.90;;
45932;SDS011;51011;46.790;17.184;2022-07-29T06:46:43;7.18;;;5.32;;
45932;SDS011;51011;46.790;17.184;2022-07-29T06:49:09;7.95;;;6.10;;
45932;SDS011;51011;46.790;17.184;2022-07-29T06:51:35;8.55;;;6.25;;
45932;SDS011;51011;46.790;17.184;2022-07-29T06:54:01;7.35;;;5.80;;
45932;SDS011;51011;46.790;17.184;2022-07-29T06:56:26;9.77;;;6.22;;
45932;SDS011;51011;46.790;17.184;2022-07-29T06:58:52;10.02;;;6.20;;
45932;SDS011;51011;46.790;17.184;2022-07-29T07:01:17;7.25;;;6.13;;
45932;SDS011;51011;46.790;17.184;2022-07-29T07:03:43;7.15;;;5.78;;
45932;SDS011;51011;46.790;17.184;2022-07-29T07:06:08;6.85;;;5.70;;
45932;SDS011;51011;46.790;17.184;2022-07-29T07:08:34;6.78;;;5.57;;
45932;SDS011;51011;46.790;17.184;2022-07-29T07:10:59;6.90;;;5.72;;
45932;SDS011;51011;46.790;17.184;2022-07-29T07:13:25;10.90;;;6.05;;
45932;SDS011;51011;46.790;17.184;2022-07-29T07:15:51;6.45;;;5.80;;
45932;SDS011;51011;46.790;17.184;2022-07-29T07:18:17;8.80;;;6.40;;
45932;SDS011;51011;46.790;17.184;2022-07-29T07:20:43;8.15;;;6.57;;
45932;SDS011;51011;46.790;17.184;2022-07-29T07:23:09;8.85;;;5.93;;
45932;SDS011;51011;46.790;17.184;2022-07-29T07:25:35;8.95;;;5.80;;
45932;SDS011;51011;46.790;17.184;2022-07-29T07:28:01;11.45;;;6.47;;
45932;SDS011;51011;46.790;17.184;2022-07-29T07:30:27;10.70;;;6.47;;
45932;SDS011;51011;46.790;17.184;2022-07-29T07:32:53;12.27;;;6.70;;
45932;SDS011;51011;46.790;17.184;2022-07-29T07:35:20;10.07;;;6.72;;
45932;SDS011;51011;46.790;17.184;2022-07-29T07:37:45;10.02;;;6.93;;
45932;SDS011;51011;46.790;17.184;2022-07-29T07:40:11;7.63;;;6.05;;
45932;SDS011;51011;46.790;17.184;2022-07-29T07:42:37;10.48;;;5.80;;
45932;SDS011;51011;46.790;17.184;2022-07-29T07:45:04;7.85;;;6.18;;
45932;SDS011;51011;46.790;17.184;2022-07-29T07:47:31;10.73;;;6.70;;
45932;SDS011;51011;46.790;17.184;2022-07-29T07:49:57;8.40;;;6.20;;
45932;SDS011;51011;46.790;17.184;2022-07-29T07:52:22;10.07;;;6.25;;
45932;SDS011;51011;46.790;17.184;2022-07-29T07:54:48;14.80;;;6.13;;
45932;SDS011;51011;46.790;17.184;2022-07-29T07:57:14;6.88;;;6.18;;
45932;SDS011;51011;46.790;17.184;2022-07-29T07:59:40;7.25;;;6.00;;
45932;SDS011;51011;46.790;17.184;2022-07-29T08:02:06;9.07;;;6.22;;
45932;SDS011;51011;46.790;17.184;2022-07-29T08:04:33;9.38;;;6.03;;
45932;SDS011;51011;46.790;17.184;2022-07-29T08:06:58;6.85;;;6.05;;
45932;SDS011;51011;46.790;17.184;2022-07-29T08:09:25;7.28;;;5.72;;
45932;SDS011;51011;46.790;17.184;2022-07-29T08:11:51;14.20;;;6.22;;
45932;SDS011;51011;46.790;17.184;2022-07-29T08:14:17;7.00;;;5.32;;
45932;SDS011;51011;46.790;17.184;2022-07-29T08:16:43;11.27;;;6.13;;
45932;SDS011;51011;46.790;17.184;2022-07-29T08:19:09;6.78;;;5.40;;
45932;SDS011;51011;46.790;17.184;2022-07-29T08:21:35;6.78;;;5.95;;
45932;SDS011;51011;46.790;17.184;2022-07-29T08:24:00;8.27;;;5.70;;
45932;SDS011;51011;46.790;17.184;2022-07-29T08:26:45;6.63;;;5.63;;
45932;SDS011;51011;46.790;17.184;2022-07-29T08:29:10;6.13;;;5.53;;
45932;SDS011;51011;46.790;17.184;2022-07-29T08:31:37;6.70;;;5.60;;
45932;SDS011;51011;46.790;17.184;2022-07-29T08:34:04;9.02;;;5.38;;
45932;SDS011;51011;46.790;17.184;2022-07-29T08:36:30;7.43;;;5.65;;
45932;SDS011;51011;46.790;17.184;2022-07-29T08:38:56;9.32;;;5.97;;
45932;SDS011;51011;46.790;17.184;2022-07-29T08:41:22;6.60;;;5.85;;
45932;SDS011;51011;46.790;17.184;2022-07-29T08:43:48;7.57;;;5.90;;
45932;SDS011;51011;46.790;17.184;2022-07-29T08:46:16;6.32;;;5.65;;
45932;SDS011;51011;46.790;17.184;2022-07-29T08:48:42;9.02;;;5.93;;
45932;SDS011;51011;46.790;17.184;2022-07-29T08:51:08;7.68;;;5.55;;
45932;SDS011;51011;46.790;17.184;2022-07-29T08:53:39;7.30;;;5.35;;
45932;SDS011;51011;46.790;17.184;2022-07-29T08:56:06;8.90;;;5.60;;
45932;SDS011;51011;46.790;17.184;2022-07-29T08:58:32;12.43;;;5.50;;
45932;SDS011;51011;46.790;17.184;2022-07-29T09:00:59;8.57;;;5.88;;
45932;SDS011;51011;46.790;17.184;2022-07-29T09:03:29;7.97;;;5.43;;
45932;SDS011;51011;46.790;17.184;2022-07-29T09:05:55;9.85;;;5.45;;
45932;SDS011;51011;46.790;17.184;2022-07-29T09:08:21;6.10;;;5.10;;
45932;SDS011;51011;46.790;17.184;2022-07-29T09:10:47;8.50;;;5.13;;
45932;SDS011;51011;46.790;17.184;2022-07-29T09:13:14;7.32;;;5.38;;
45932;SDS011;51011;46.790;17.184;2022-07-29T09:15:39;8.40;;;5.15;;
45932;SDS011;51011;46.790;17.184;2022-07-29T09:18:05;7.20;;;5.40;;
45932;SDS011;51011;46.790;17.184;2022-07-29T09:20:30;8.95;;;5.00;;
45932;SDS011;51011;46.790;17.184;2022-07-29T09:23:14;5.70;;;5.10;;
45932;SDS011;51011;46.790;17.184;2022-07-29T09:25:40;8.23;;;5.35;;
45932;SDS011;51011;46.790;17.184;2022-07-29T09:28:07;9.90;;;5.53;;
45932;SDS011;51011;46.790;17.184;2022-07-29T09:30:58;9.43;;;5.63;;
45932;SDS011;51011;46.790;17.184;2022-07-29T09:33:23;6.93;;;5.20;;
45932;SDS011;51011;46.790;17.184;2022-07-29T09:36:00;8.88;;;4.82;;
45932;SDS011;51011;46.790;17.184;2022-07-29T09:38:28;6.43;;;4.70;;
45932;SDS011;51011;46.790;17.184;2022-07-29T09:40:57;4.78;;;4.28;;
45932;SDS011;51011;46.790;17.184;2022-07-29T09:43:24;6.95;;;5.22;;
45932;SDS011;51011;46.790;17.184;2022-07-29T09:45:50;5.05;;;4.55;;
45932;SDS011;51011;46.790;17.184;2022-07-29T09:48:20;7.15;;;4.82;;
45932;SDS011;51011;46.790;17.184;2022-07-29T09:50:47;7.57;;;4.80;;
45932;SDS011;51011;46.790;17.184;2022-07-29T09:53:32;8.57;;;4.90;;
45932;SDS011;51011;46.790;17.184;2022-07-29T09:55:58;7.35;;;4.75;;
45932;SDS011;51011;46.790;17.184;2022-07-29T09:58:24;5.88;;;4.28;;
45932;SDS011;51011;46.790;17.184;2022-07-29T10:00:50;6.18;;;4.57;;
45932;SDS011;51011;46.790;17.184;2022-07-29T10:03:16;7.13;;;4.50;;
45932;SDS011;51011;46.790;17.184;2022-07-29T10:05:43;5.88;;;4.38;;
45932;SDS011;51011;46.790;17.184;2022-07-29T10:08:09;6.45;;;4.72;;
45932;SDS011;51011;46.790;17.184;2022-07-29T10:10:43;7.93;;;4.40;;
45932;SDS011;51011;46.790;17.184;2022-07-29T10:15:39;6.18;;;4.30;;
45932;SDS011;51011;46.790;17.184;2022-07-29T10:18:09;6.97;;;4.00;;
45932;SDS011;51011;46.790;17.184;2022-07-29T10:20:37;5.57;;;4.20;;
45932;SDS011;51011;46.790;17.184;2022-07-29T10:23:03;6.45;;;4.75;;
45932;SDS011;51011;46.790;17.184;2022-07-29T10:25:29;6.72;;;4.40;;
45932;SDS011;51011;46.790;17.184;2022-07-29T10:27:55;6.07;;;4.13;;
45932;SDS011;51011;46.790;17.184;2022-07-29T10:30:21;5.22;;;4.45;;
45932;SDS011;51011;46.790;17.184;2022-07-29T10:35:44;6.68;;;4.25;;
45932;SDS011;51011;46.790;17.184;2022-07-29T10:44:14;8.23;;;4.55;;
45932;SDS011;51011;46.790;17.184;2022-07-29T10:46:40;8.10;;;4.45;;
45932;SDS011;51011;46.790;17.184;2022-07-29T10:49:06;6.50;;;4.20;;
45932;SDS011;51011;46.790;17.184;2022-07-29T10:57:13;8.98;;;4.47;;
45932;SDS011;51011;46.790;17.184;2022-07-29T10:59:41;8.70;;;4.57;;
45932;SDS011;51011;46.790;17.184;2022-07-29T11:07:23;5.90;;;4.78;;
45932;SDS011;51011;46.790;17.184;2022-07-29T11:15:12;7.82;;;4.50;;
45932;SDS011;51011;46.790;17.184;2022-07-29T11:20:35;6.00;;;4.43;;
45932;SDS011;51011;46.790;17.184;2022-07-29T11:31:19;5.20;;;4.22;;
45932;SDS011;51011;46.790;17.184;2022-07-29T11:33:56;7.05;;;4.68;;
45932;SDS011;51011;46.790;17.184;2022-07-29T11:36:22;6.03;;;4.80;;
45932;SDS011;51011;46.790;17.184;2022-07-29T11:38:47;5.43;;;4.32;;
45932;SDS011;51011;46.790;17.184;2022-07-29T11:41:20;6.03;;;4.45;;
45932;SDS011;51011;46.790;17.184;2022-07-29T11:43:56;6.05;;;4.40;;
45932;SDS011;51011;46.790;17.184;2022-07-29T11:46:43;6.95;;;4.30;;
45932;SDS011;51011;46.790;17.184;2022-07-29T11:49:24;5.75;;;4.38;;
45932;SDS011;51011;46.790;17.184;2022-07-29T11:51:57;5.35;;;4.10;;
45932;SDS011;51011;46.790;17.184;2022-07-29T11:54:26;8.75;;;5.03;;
45932;SDS011;51011;46.790;17.184;2022-07-29T11:56:57;5.13;;;4.53;;
45932;SDS011;51011;46.790;17.184;2022-07-29T11:59:23;5.28;;;4.18;;
45932;SDS011;51011;46.790;17.184;2022-07-29T12:01:53;6.72;;;4.32;;
45932;SDS011;51011;46.790;17.184;2022-07-29T12:04:19;5.45;;;4.80;;
45932;SDS011;51011;46.790;17.184;2022-07-29T12:06:51;6.45;;;4.53;;
45932;SDS011;51011;46.790;17.184;2022-07-29T12:09:20;6.82;;;4.63;;
45932;SDS011;51011;46.790;17.184;2022-07-29T12:11:46;6.07;;;4.63;;
45932;SDS011;51011;46.790;17.184;2022-07-29T12:14:28;7.07;;;4.30;;
45932;SDS011;51011;46.790;17.184;2022-07-29T12:16:56;6.13;;;4.80;;
45932;SDS011;51011;46.790;17.184;2022-07-29T12:19:22;9.68;;;4.38;;
45932;SDS011;51011;46.790;17.184;2022-07-29T12:21:49;9.43;;;4.60;;
45932;SDS011;51011;46.790;17.184;2022-07-29T12:24:19;4.75;;;4.15;;
45932;SDS011;51011;46.790;17.184;2022-07-29T12:26:55;5.85;;;4.70;;
45932;SDS011;51011;46.790;17.184;2022-07-29T12:29:24;6.15;;;4.57;;
45932;SDS011;51011;46.790;17.184;2022-07-29T12:31:54;8.48;;;4.78;;
45932;SDS011;51011;46.790;17.184;2022-07-29T12:34:24;5.13;;;4.55;;
45932;SDS011;51011;46.790;17.184;2022-07-29T12:36:52;6.43;;;4.70;;
45932;SDS011;51011;46.790;17.184;2022-07-29T12:39:17;7.05;;;4.50;;
45932;SDS011;51011;46.790;17.184;2022-07-29T12:41:43;5.88;;;4.25;;
45932;SDS011;51011;46.790;17.184;2022-07-29T12:44:09;4.80;;;4.30;;
45932;SDS011;51011;46.790;17.184;2022-07-29T12:46:35;8.10;;;4.20;;
45932;SDS011;51011;46.790;17.184;2022-07-29T12:49:01;7.35;;;4.63;;
45932;SDS011;51011;46.790;17.184;2022-07-29T12:51:34;7.10;;;4.25;;
45932;SDS011;51011;46.790;17.184;2022-07-29T12:56:39;9.50;;;4.40;;
45932;SDS011;51011;46.790;17.184;2022-07-29T12:59:13;8.20;;;4.60;;
45932;SDS011;51011;46.790;17.184;2022-07-29T13:01:44;5.68;;;4.03;;
45932;SDS011;51011;46.790;17.184;2022-07-29T13:04:10;5.72;;;4.28;;
45932;SDS011;51011;46.790;17.184;2022-07-29T13:06:37;6.70;;;4.55;;
45932;SDS011;51011;46.790;17.184;2022-07-29T13:11:30;6.93;;;4.60;;
45932;SDS011;51011;46.790;17.184;2022-07-29T13:14:13;4.60;;;4.20;;
45932;SDS011;51011;46.790;17.184;2022-07-29T13:17:22;7.75;;;4.40;;
45932;SDS011;51011;46.790;17.184;2022-07-29T13:19:45;4.90;;;4.50;;
45932;SDS011;51011;46.790;17.184;2022-07-29T13:22:13;5.57;;;4.50;;
45932;SDS011;51011;46.790;17.184;2022-07-29T13:27:22;5.30;;;4.45;;
45932;SDS011;51011;46.790;17.184;2022-07-29T13:29:49;9.40;;;4.60;;
45932;SDS011;51011;46.790;17.184;2022-07-29T13:32:20;5.32;;;4.80;;
45932;SDS011;51011;46.790;17.184;2022-07-29T13:34:46;5.20;;;4.40;;
45932;SDS011;51011;46.790;17.184;2022-07-29T13:37:12;6.22;;;4.40;;
45932;SDS011;51011;46.790;17.184;2022-07-29T13:39:37;8.15;;;4.80;;
45932;SDS011;51011;46.790;17.184;2022-07-29T13:42:03;6.85;;;4.68;;
45932;SDS011;51011;46.790;17.184;2022-07-29T13:44:29;5.45;;;4.95;;
45932;SDS011;51011;46.790;17.184;2022-07-29T13:46:55;4.40;;;4.00;;
45932;SDS011;51011;46.790;17.184;2022-07-29T13:49:21;5.95;;;4.63;;
45932;SDS011;51011;46.790;17.184;2022-07-29T13:51:47;8.07;;;4.95;;
45932;SDS011;51011;46.790;17.184;2022-07-29T13:54:14;5.60;;;4.50;;
45932;SDS011;51011;46.790;17.184;2022-07-29T13:56:39;8.18;;;4.30;;
45932;SDS011;51011;46.790;17.184;2022-07-29T13:59:05;6.20;;;4.70;;
45932;SDS011;51011;46.790;17.184;2022-07-29T14:01:31;7.68;;;5.30;;
45932;SDS011;51011;46.790;17.184;2022-07-29T14:03:56;8.93;;;4.80;;
45932;SDS011;51011;46.790;17.184;2022-07-29T14:06:22;7.93;;;4.63;;
45932;SDS011;51011;46.790;17.184;2022-07-29T14:08:47;7.72;;;4.35;;
45932;SDS011;51011;46.790;17.184;2022-07-29T14:11:13;5.45;;;4.80;;
45932;SDS011;51011;46.790;17.184;2022-07-29T14:13:38;6.25;;;4.65;;
45932;SDS011;51011;46.790;17.184;2022-07-29T14:16:05;8.05;;;4.82;;
45932;SDS011;51011;46.790;17.184;2022-07-29T14:18:32;7.32;;;5.07;;
45932;SDS011;51011;46.790;17.184;2022-07-29T14:20:58;6.15;;;4.63;;
45932;SDS011;51011;46.790;17.184;2022-07-29T14:23:24;6.82;;;4.85;;
45932;SDS011;51011;46.790;17.184;2022-07-29T14:25:49;6.72;;;4.50;;
45932;SDS011;51011;46.790;17.184;2022-07-29T14:28:15;20.13;;;5.05;;
45932;SDS011;51011;46.790;17.184;2022-07-29T14:30:40;7.65;;;4.80;;
45932;SDS011;51011;46.790;17.184;2022-07-29T14:33:06;7.70;;;4.70;;
45932;SDS011;51011;46.790;17.184;2022-07-29T14:35:31;6.38;;;4.95;;
45932;SDS011;51011;46.790;17.184;2022-07-29T14:37:57;6.88;;;4.63;;
45932;SDS011;51011;46.790;17.184;2022-07-29T14:40:23;8.43;;;4.68;;
45932;SDS011;51011;46.790;17.184;2022-07-29T14:42:48;7.50;;;5.03;;
45932;SDS011;51011;46.790;17.184;2022-07-29T14:45:14;5.13;;;4.60;;
45932;SDS011;51011;46.790;17.184;2022-07-29T14:47:39;5.47;;;4.95;;
45932;SDS011;51011;46.790;17.184;2022-07-29T14:50:05;5.93;;;4.88;;
45932;SDS011;51011;46.790;17.184;2022-07-29T14:52:31;6.18;;;5.00;;
45932;SDS011;51011;46.790;17.184;2022-07-29T14:54:57;5.53;;;5.00;;
45932;SDS011;51011;46.790;17.184;2022-07-29T14:57:22;5.78;;;4.80;;
45932;SDS011;51011;46.790;17.184;2022-07-29T14:59:48;6.72;;;4.93;;
45932;SDS011;51011;46.790;17.184;2022-07-29T15:02:13;7.63;;;4.88;;
45932;SDS011;51011;46.790;17.184;2022-07-29T15:04:39;6.95;;;4.68;;
45932;SDS011;51011;46.790;17.184;2022-07-29T15:07:04;7.55;;;5.15;;
45932;SDS011;51011;46.790;17.184;2022-07-29T15:09:30;5.82;;;5.18;;
45932;SDS011;51011;46.790;17.184;2022-07-29T15:11:55;8.02;;;4.80;;
45932;SDS011;51011;46.790;17.184;2022-07-29T15:14:21;5.75;;;4.80;;
45932;SDS011;51011;46.790;17.184;2022-07-29T15:16:46;5.07;;;4.57;;
45932;SDS011;51011;46.790;17.184;2022-07-29T15:19:12;7.80;;;4.90;;
45932;SDS011;51011;46.790;17.184;2022-07-29T15:21:38;6.03;;;4.68;;
45932;SDS011;51011;46.790;17.184;2022-07-29T15:24:04;5.78;;;4.63;;
45932;SDS011;51011;46.790;17.184;2022-07-29T15:26:29;6.80;;;4.50;;
45932;SDS011;51011;46.790;17.184;2022-07-29T15:28:55;7.28;;;4.60;;
45932;SDS011;51011;46.790;17.184;2022-07-29T15:31:21;6.03;;;4.88;;
45932;SDS011;51011;46.790;17.184;2022-07-29T15:33:46;5.97;;;5.05;;
45932;SDS011;51011;46.790;17.184;2022-07-29T15:36:12;9.15;;;4.90;;
45932;SDS011;51011;46.790;17.184;2022-07-29T15:38:38;7.93;;;4.70;;